Time;durP1;ratioP1;P1;durP2;ratioP2;P2;SDS_P1;SDS_P2;PMS_P1;PMS_P2;Temp;Humidity;BMP_temperature;BMP_pressure;BME280_temperature;BME280_humidity;BME280_pressure;Samples;Min_cycle;Max_cycle;Signal;HPM_P1;HPM_P2
2022/07/23 00:01:32;;;;;;;5.22;2.50;;;17.70;68.70;;;;;;4996407;28;20082;-78
2022/07/23 00:03:58;;;;;;;4.15;2.78;;;17.70;68.90;;;;;;4997045;28;20031;-78
2022/07/23 00:06:26;;;;;;;3.17;2.65;;;17.70;68.50;;;;;;4996447;28;20089;-78
2022/07/23 00:08:51;;;;;;;3.88;2.30;;;17.60;68.50;;;;;;4995453;28;20034;-78
2022/07/23 00:11:17;;;;;;;3.70;2.45;;;17.60;68.60;;;;;;4996105;28;20857;-78
2022/07/23 00:13:43;;;;;;;5.50;2.55;;;17.60;69.00;;;;;;5011582;28;20034;-78
2022/07/23 00:16:09;;;;;;;11.05;2.50;;;17.60;69.30;;;;;;4995889;28;20105;-78
2022/07/23 00:18:35;;;;;;;3.45;2.33;;;17.50;69.50;;;;;;4996481;28;20030;-78
2022/07/23 00:21:01;;;;;;;4.55;2.72;;;17.50;69.50;;;;;;4996606;28;20035;-78
2022/07/23 00:23:28;;;;;;;5.68;2.63;;;17.60;69.20;;;;;;4996357;28;20420;-78
2022/07/23 00:25:54;;;;;;;2.97;1.95;;;17.60;69.60;;;;;;4995180;28;20117;-78
2022/07/23 00:28:20;;;;;;;4.70;2.58;;;17.60;69.50;;;;;;4994860;28;20057;-78
2022/07/23 00:30:46;;;;;;;6.50;2.80;;;17.60;69.30;;;;;;4995922;28;20053;-78
2022/07/23 00:33:12;;;;;;;3.63;2.47;;;17.60;69.50;;;;;;5011597;28;20030;-78
2022/07/23 00:35:40;;;;;;;7.03;3.25;;;17.60;69.10;;;;;;5009924;28;20053;-78
2022/07/23 00:38:09;;;;;;;8.38;2.72;;;17.60;69.20;;;;;;4996238;28;20082;-78
2022/07/23 00:40:35;;;;;;;9.05;3.22;;;17.50;69.00;;;;;;4995674;28;20062;-78
2022/07/23 00:43:01;;;;;;;5.30;2.90;;;17.40;69.70;;;;;;4996029;28;20069;-78
2022/07/23 00:45:27;;;;;;;5.05;2.80;;;17.40;70.00;;;;;;4995789;28;20030;-78
2022/07/23 00:47:53;;;;;;;6.25;2.85;;;17.40;69.90;;;;;;4995017;28;20034;-78
2022/07/23 00:50:19;;;;;;;3.72;2.30;;;17.40;69.90;;;;;;4995463;28;20049;-78
2022/07/23 00:52:45;;;;;;;4.80;2.50;;;17.30;69.70;;;;;;4996216;28;20037;-78
2022/07/23 00:55:11;;;;;;;3.83;3.05;;;17.30;70.00;;;;;;4994967;28;20027;-78
2022/07/23 00:57:38;;;;;;;4.93;2.83;;;17.20;70.30;;;;;;4995881;28;20109;-78
2022/07/23 01:00:06;;;;;;;4.72;2.95;;;17.20;70.20;;;;;;4995447;28;20080;-78
2022/07/23 01:02:32;;;;;;;7.13;3.08;;;17.10;70.20;;;;;;5011189;28;20393;-78
2022/07/23 01:04:58;;;;;;;4.63;3.10;;;17.20;70.60;;;;;;4995452;28;20027;-78
2022/07/23 01:07:24;;;;;;;6.75;3.05;;;17.10;70.30;;;;;;5011094;28;20038;-78
2022/07/23 01:09:51;;;;;;;4.95;2.90;;;17.20;70.20;;;;;;4995660;28;20080;-78
2022/07/23 01:12:17;;;;;;;8.35;2.95;;;17.20;70.50;;;;;;4995016;28;20393;-78
2022/07/23 01:14:42;;;;;;;9.00;3.53;;;17.30;70.30;;;;;;4995243;28;20042;-78
2022/07/23 01:17:08;;;;;;;4.15;2.47;;;17.30;69.90;;;;;;4995845;28;20219;-78
2022/07/23 01:19:34;;;;;;;4.80;2.88;;;17.20;70.10;;;;;;4995829;28;20632;-78
2022/07/23 01:22:03;;;;;;;5.80;3.90;;;17.20;69.80;;;;;;4995731;28;20030;-79
2022/07/23 01:24:30;;;;;;;4.10;3.00;;;17.10;70.20;;;;;;4995012;28;20042;-78
2022/07/23 01:26:56;;;;;;;7.90;3.08;;;17.20;70.30;;;;;;4995782;28;20508;-78
2022/07/23 01:29:21;;;;;;;8.20;3.38;;;17.10;70.50;;;;;;4995216;28;20038;-78
2022/07/23 01:31:47;;;;;;;6.25;3.10;;;17.10;70.60;;;;;;4995064;28;20027;-78
2022/07/23 01:34:14;;;;;;;7.22;3.35;;;17.10;71.00;;;;;;4995622;28;20078;-78
2022/07/23 01:36:40;;;;;;;7.78;3.78;;;17.10;70.80;;;;;;4995652;28;20023;-78
2022/07/23 01:39:07;;;;;;;6.18;3.33;;;17.10;70.90;;;;;;4995145;28;20097;-78
2022/07/23 01:41:33;;;;;;;4.35;3.33;;;17.10;70.80;;;;;;4996041;28;20080;-78
2022/07/23 01:43:59;;;;;;;10.60;3.60;;;17.00;71.10;;;;;;4995391;28;20464;-78
2022/07/23 01:46:24;;;;;;;6.55;3.45;;;17.10;70.90;;;;;;4994939;28;20068;-78
2022/07/23 01:48:50;;;;;;;7.32;3.10;;;17.00;70.70;;;;;;4994933;28;20144;-78
2022/07/23 01:51:16;;;;;;;11.10;3.88;;;17.10;71.40;;;;;;4995478;28;20112;-78
2022/07/23 01:53:42;;;;;;;6.93;3.55;;;17.10;71.20;;;;;;5010701;28;20419;-78
2022/07/23 01:56:07;;;;;;;7.80;3.47;;;17.00;71.40;;;;;;4995041;28;20153;-78
2022/07/23 01:58:33;;;;;;;5.68;3.28;;;17.00;71.50;;;;;;4994822;28;20022;-78
2022/07/23 02:00:59;;;;;;;6.00;3.25;;;17.00;71.20;;;;;;4995464;28;20038;-79
2022/07/23 02:03:25;;;;;;;8.13;3.78;;;16.90;71.50;;;;;;4995031;28;20425;-78
2022/07/23 02:05:51;;;;;;;7.30;3.78;;;17.00;71.40;;;;;;4994823;28;20038;-77
2022/07/23 02:08:17;;;;;;;6.00;3.33;;;17.00;72.20;;;;;;4994126;28;20089;-78
2022/07/23 02:10:43;;;;;;;6.60;3.58;;;17.00;71.60;;;;;;4994881;28;20034;-78
2022/07/23 02:13:09;;;;;;;6.03;3.65;;;17.00;71.30;;;;;;5010554;28;20089;-78
2022/07/23 02:15:35;;;;;;;6.38;3.13;;;17.00;71.70;;;;;;4995320;28;20047;-78
2022/07/23 02:18:01;;;;;;;6.15;2.83;;;17.00;71.60;;;;;;4995576;28;20397;-78
2022/07/23 02:20:27;;;;;;;4.93;3.05;;;17.00;71.50;;;;;;4995336;28;20129;-78
2022/07/23 02:22:54;;;;;;;8.20;3.80;;;17.00;71.70;;;;;;4998321;28;20098;-77
2022/07/23 02:25:20;;;;;;;4.55;3.42;;;17.00;71.60;;;;;;4998583;28;20026;-78
2022/07/23 02:27:46;;;;;;;7.38;3.35;;;17.00;71.50;;;;;;4998555;28;20073;-78
2022/07/23 02:30:12;;;;;;;5.35;3.33;;;17.00;71.80;;;;;;4998100;28;20027;-78
2022/07/23 02:32:39;;;;;;;5.90;3.10;;;16.90;71.80;;;;;;4998450;28;20030;-78
2022/07/23 02:35:06;;;;;;;6.95;3.47;;;17.00;71.70;;;;;;4998169;28;20042;-78
2022/07/23 02:37:32;;;;;;;7.20;3.60;;;16.90;71.70;;;;;;4998562;28;20034;-78
2022/07/23 02:40:00;;;;;;;7.45;3.65;;;16.90;71.90;;;;;;4998272;28;20023;-78
2022/07/23 02:42:25;;;;;;;8.48;3.40;;;16.90;71.90;;;;;;4997275;28;20033;-77
2022/07/23 02:44:52;;;;;;;5.00;3.33;;;16.90;72.00;;;;;;5013698;28;20373;-78
2022/07/23 02:47:17;;;;;;;9.68;3.47;;;16.90;72.00;;;;;;4998499;28;20105;-78
2022/07/23 02:49:43;;;;;;;7.03;4.10;;;16.90;71.80;;;;;;4997629;28;20058;-78
2022/07/23 02:52:10;;;;;;;5.90;3.42;;;16.90;72.00;;;;;;4998191;28;20406;-78
2022/07/23 02:54:36;;;;;;;6.07;3.38;;;16.90;72.00;;;;;;4997710;28;20555;-78
2022/07/23 02:57:04;;;;;;;6.35;3.72;;;16.80;71.90;;;;;;4998147;28;20130;-78
2022/07/23 02:59:30;;;;;;;4.95;3.70;;;16.80;71.60;;;;;;5012825;28;20038;-79
2022/07/23 03:01:56;;;;;;;7.03;3.90;;;16.80;72.10;;;;;;4996410;28;20121;-78
2022/07/23 03:04:21;;;;;;;6.03;3.60;;;16.80;72.30;;;;;;4997679;28;20030;-78
2022/07/23 03:06:47;;;;;;;6.68;3.60;;;16.80;72.30;;;;;;4997978;28;20060;-78
2022/07/23 03:09:13;;;;;;;6.00;3.70;;;16.70;71.80;;;;;;4997811;28;20026;-78
2022/07/23 03:11:38;;;;;;;8.15;4.15;;;16.70;72.50;;;;;;4997935;28;20042;-78
2022/07/23 03:14:13;;;;;;;7.57;3.67;;;16.80;72.10;;;;;;4997301;28;20017;-78
2022/07/23 03:16:39;;;;;;;7.35;3.83;;;16.70;71.90;;;;;;4996417;28;20042;-78
2022/07/23 03:19:04;;;;;;;5.90;3.97;;;16.60;72.40;;;;;;4996599;28;20074;-78
2022/07/23 03:21:30;;;;;;;7.93;3.95;;;16.60;72.60;;;;;;4996461;28;20038;-78
2022/07/23 03:23:56;;;;;;;5.15;3.70;;;16.60;72.50;;;;;;4997947;28;20034;-78
2022/07/23 03:26:25;;;;;;;8.45;4.00;;;16.60;72.30;;;;;;4997389;28;20129;-78
2022/07/23 03:28:51;;;;;;;5.28;3.30;;;16.60;72.30;;;;;;4997041;28;20031;-78
2022/07/23 03:31:16;;;;;;;8.13;3.80;;;16.60;72.50;;;;;;4997387;28;20505;-78
2022/07/23 03:33:42;;;;;;;6.75;3.58;;;16.60;72.70;;;;;;4997537;28;20034;-78
2022/07/23 03:36:08;;;;;;;6.45;4.13;;;16.50;73.10;;;;;;4996993;28;20025;-78
2022/07/23 03:38:34;;;;;;;5.70;3.30;;;16.50;73.00;;;;;;4996764;28;20065;-78
2022/07/23 03:40:59;;;;;;;6.40;3.65;;;16.40;72.80;;;;;;4997281;28;20089;-78
2022/07/23 03:43:25;;;;;;;8.65;4.03;;;16.40;72.80;;;;;;4995494;28;20053;-78
2022/07/23 03:45:51;;;;;;;9.35;4.35;;;16.50;72.60;;;;;;4997414;28;20159;-78
2022/07/23 03:48:17;;;;;;;5.78;3.80;;;16.50;72.30;;;;;;4997094;28;20030;-78
2022/07/23 03:50:43;;;;;;;9.15;3.40;;;16.40;71.90;;;;;;5010653;28;20039;-78
2022/07/23 03:53:08;;;;;;;5.47;3.53;;;16.30;71.90;;;;;;4997154;28;20045;-78
2022/07/23 03:55:34;;;;;;;6.22;3.63;;;16.30;72.60;;;;;;4996054;28;20076;-78
2022/07/23 03:58:00;;;;;;;6.50;3.83;;;16.30;72.70;;;;;;4996253;28;20030;-78
2022/07/23 04:00:26;;;;;;;7.80;3.78;;;16.20;72.80;;;;;;4996495;28;20034;-78
2022/07/23 04:02:52;;;;;;;6.20;4.22;;;16.20;73.20;;;;;;4996360;28;20029;-78
2022/07/23 04:05:25;;;;;;;6.80;3.97;;;16.20;73.20;;;;;;4996894;28;20129;-79
2022/07/23 04:07:50;;;;;;;7.30;4.30;;;16.10;73.20;;;;;;4996885;28;20913;-78
2022/07/23 04:10:16;;;;;;;9.93;4.18;;;16.10;73.00;;;;;;4996727;28;20105;-78
2022/07/23 04:12:42;;;;;;;7.85;4.15;;;16.10;73.30;;;;;;4995596;28;20046;-78
2022/07/23 04:15:08;;;;;;;5.72;3.88;;;16.20;73.20;;;;;;4996466;28;20039;-78
2022/07/23 04:17:34;;;;;;;7.38;4.18;;;16.10;73.10;;;;;;4994743;28;20027;-78
2022/07/23 04:20:00;;;;;;;8.88;3.88;;;16.20;73.00;;;;;;4996542;28;20031;-78
2022/07/23 04:22:26;;;;;;;8.50;4.72;;;16.10;72.60;;;;;;4996014;28;20023;-79
2022/07/23 04:24:52;;;;;;;6.03;4.00;;;16.10;73.30;;;;;;4995530;28;20461;-78
2022/07/23 04:27:17;;;;;;;13.75;4.47;;;16.00;73.10;;;;;;4995849;28;20034;-78
2022/07/23 04:29:43;;;;;;;6.57;4.60;;;16.10;73.30;;;;;;4995775;28;20030;-78
2022/07/23 04:32:09;;;;;;;11.05;4.18;;;16.00;73.40;;;;;;4995980;28;20077;-78
2022/07/23 04:34:34;;;;;;;12.00;5.18;;;16.00;73.70;;;;;;4996469;28;20086;-78
2022/07/23 04:37:00;;;;;;;8.77;4.13;;;16.10;73.60;;;;;;4996398;28;20054;-78
2022/07/23 04:39:30;;;;;;;8.32;4.53;;;16.00;73.60;;;;;;4995798;28;20030;-78
2022/07/23 04:41:56;;;;;;;10.77;4.45;;;16.00;73.60;;;;;;5011391;28;20026;-78
2022/07/23 04:44:21;;;;;;;7.05;4.38;;;16.00;73.00;;;;;;4995703;28;20097;-78
2022/07/23 04:46:47;;;;;;;8.02;4.30;;;16.00;73.80;;;;;;4995883;28;20045;-78
2022/07/23 04:49:13;;;;;;;7.10;4.28;;;15.90;73.10;;;;;;4995532;28;20034;-78
2022/07/23 04:51:38;;;;;;;10.48;4.32;;;15.90;73.40;;;;;;4994371;28;20550;-78
2022/07/23 04:54:04;;;;;;;6.22;3.60;;;15.90;73.40;;;;;;4996062;28;20026;-78
2022/07/23 04:56:30;;;;;;;6.82;4.55;;;15.90;73.50;;;;;;4994383;28;20397;-78
2022/07/23 04:58:55;;;;;;;11.50;5.00;;;15.90;73.60;;;;;;4995883;28;20493;-78
2022/07/23 05:01:21;;;;;;;7.90;4.53;;;15.90;73.70;;;;;;4995820;28;20334;-78
2022/07/23 05:03:48;;;;;;;9.35;4.22;;;15.90;73.90;;;;;;4995962;28;20109;-78
2022/07/23 05:06:14;;;;;;;8.68;4.20;;;15.90;73.60;;;;;;5007160;28;20027;-78
2022/07/23 05:08:40;;;;;;;7.90;4.57;;;15.90;74.10;;;;;;4982028;28;20034;-78
2022/07/23 05:11:05;;;;;;;7.78;4.13;;;15.80;74.30;;;;;;4995918;28;20081;-78
2022/07/23 05:13:31;;;;;;;9.45;5.05;;;15.80;73.70;;;;;;4995719;28;20030;-78
2022/07/23 05:15:57;;;;;;;10.32;4.97;;;15.80;73.80;;;;;;4995884;28;20521;-78
2022/07/23 05:18:22;;;;;;;8.82;4.45;;;15.90;73.40;;;;;;4995155;28;20089;-78
2022/07/23 05:20:48;;;;;;;5.20;3.40;;;15.90;73.90;;;;;;4994899;28;20030;-78
2022/07/23 05:23:14;;;;;;;7.32;3.80;;;15.90;73.90;;;;;;4995833;28;20117;-78
2022/07/23 05:25:40;;;;;;;9.20;4.57;;;15.90;73.50;;;;;;4995645;28;20392;-78
2022/07/23 05:28:05;;;;;;;12.02;4.82;;;15.90;74.00;;;;;;4994564;28;20812;-78
2022/07/23 05:30:31;;;;;;;7.70;4.63;;;15.90;73.70;;;;;;4995120;28;20026;-78
2022/07/23 05:32:57;;;;;;;5.65;4.22;;;15.90;74.80;;;;;;4995822;28;20132;-78
2022/07/23 05:35:23;;;;;;;8.20;4.70;;;15.90;74.50;;;;;;5010679;28;20173;-78
2022/07/23 05:37:48;;;;;;;7.72;4.30;;;16.00;74.40;;;;;;5009633;28;20093;-78
2022/07/23 05:40:14;;;;;;;8.40;3.78;;;16.00;74.20;;;;;;4994002;28;20065;-78
2022/07/23 05:42:42;;;;;;;12.05;5.07;;;16.00;74.30;;;;;;4995561;28;20042;-78
2022/07/23 05:45:08;;;;;;;9.50;4.57;;;16.00;74.20;;;;;;4994942;28;20057;-78
2022/07/23 05:47:44;;;;;;;5.90;3.88;;;16.00;74.50;;;;;;4990909;28;20066;-78
2022/07/23 05:50:12;;;;;;;7.82;4.57;;;16.10;74.50;;;;;;4976165;28;20471;-78
2022/07/23 05:52:38;;;;;;;7.50;4.40;;;16.20;74.40;;;;;;4985089;28;20030;-78
2022/07/23 05:55:04;;;;;;;10.38;4.07;;;16.10;74.40;;;;;;4996111;28;20492;-78
2022/07/23 05:57:30;;;;;;;9.15;4.30;;;16.20;74.60;;;;;;4998112;28;20042;-78
2022/07/23 05:59:55;;;;;;;7.32;4.55;;;16.20;74.50;;;;;;4998714;28;20034;-78
2022/07/23 06:02:21;;;;;;;8.48;4.30;;;16.20;74.40;;;;;;4999197;28;20117;-78
2022/07/23 06:04:47;;;;;;;9.48;4.43;;;16.20;75.40;;;;;;5013032;28;20022;-78
2022/07/23 06:07:12;;;;;;;9.32;4.30;;;16.20;74.90;;;;;;4997954;28;20027;-78
2022/07/23 06:09:38;;;;;;;7.32;4.55;;;16.30;74.50;;;;;;4998523;28;20078;-78
2022/07/23 06:12:04;;;;;;;11.80;4.82;;;16.30;75.10;;;;;;4998939;28;20022;-78
2022/07/23 06:14:30;;;;;;;9.75;4.35;;;16.30;75.70;;;;;;4998245;28;20053;-78
2022/07/23 06:16:55;;;;;;;8.15;4.70;;;16.30;75.10;;;;;;5013793;28;20481;-78
2022/07/23 06:19:21;;;;;;;10.30;4.32;;;16.30;75.40;;;;;;5014180;28;20476;-78
2022/07/23 06:21:47;;;;;;;10.57;4.72;;;16.40;75.60;;;;;;4998308;28;20037;-78
2022/07/23 06:24:12;;;;;;;10.50;3.80;;;16.40;75.20;;;;;;4997092;28;20430;-78
2022/07/23 06:26:38;;;;;;;6.72;4.30;;;16.50;75.30;;;;;;4999047;28;20077;-78
2022/07/23 06:29:04;;;;;;;10.00;5.25;;;16.50;75.00;;;;;;4997966;28;20066;-78
2022/07/23 06:31:29;;;;;;;5.85;3.90;;;16.50;75.90;;;;;;4997572;28;20037;-78
2022/07/23 06:33:55;;;;;;;9.32;5.15;;;16.60;75.30;;;;;;4998614;28;20074;-78
2022/07/23 06:36:21;;;;;;;8.13;5.05;;;16.60;75.80;;;;;;4998597;28;20109;-78
2022/07/23 06:38:46;;;;;;;8.00;4.28;;;16.70;75.10;;;;;;4997960;28;20046;-78
2022/07/23 06:41:12;;;;;;;10.80;4.95;;;16.70;75.80;;;;;;4998561;28;20045;-78
2022/07/23 06:43:38;;;;;;;9.15;3.97;;;16.80;75.60;;;;;;4997162;28;20046;-78
2022/07/23 06:46:03;;;;;;;9.95;5.30;;;16.80;75.60;;;;;;4998796;28;20030;-78
2022/07/23 06:48:29;;;;;;;9.57;4.53;;;16.80;75.80;;;;;;4998340;28;20026;-78
2022/07/23 06:50:55;;;;;;;7.50;4.13;;;16.90;75.10;;;;;;5012226;28;20022;-78
2022/07/23 06:53:21;;;;;;;8.25;4.40;;;16.90;76.30;;;;;;4996782;28;20034;-78
2022/07/23 06:55:46;;;;;;;10.57;4.70;;;16.90;76.30;;;;;;5012123;28;20405;-78
2022/07/23 06:58:13;;;;;;;8.50;4.80;;;17.00;76.60;;;;;;4998244;28;20030;-78
2022/07/23 07:00:40;;;;;;;8.52;4.20;;;17.10;76.60;;;;;;4997663;28;20042;-78
2022/07/23 07:03:05;;;;;;;5.75;4.20;;;17.10;76.50;;;;;;4997493;28;20069;-78
2022/07/23 07:05:31;;;;;;;9.50;4.78;;;17.20;76.20;;;;;;4998182;28;20031;-78
2022/07/23 07:07:57;;;;;;;8.18;4.63;;;17.30;76.20;;;;;;4996855;28;20110;-79
2022/07/23 07:10:23;;;;;;;7.43;3.67;;;17.50;75.50;;;;;;4998022;28;20030;-78
2022/07/23 07:12:48;;;;;;;5.80;3.47;;;17.60;75.50;;;;;;4997782;28;20025;-78
2022/07/23 07:15:14;;;;;;;7.35;4.40;;;17.80;74.90;;;;;;4996345;28;20061;-78
2022/07/23 07:17:40;;;;;;;9.35;4.45;;;18.00;74.40;;;;;;4997326;28;21158;-78
2022/07/23 07:20:06;;;;;;;6.90;4.00;;;18.50;73.40;;;;;;4997401;28;20026;-78
2022/07/23 07:22:32;;;;;;;7.88;3.67;;;18.70;73.30;;;;;;4997613;28;20033;-78
2022/07/23 07:24:58;;;;;;;6.65;4.00;;;19.00;72.10;;;;;;4997444;28;20026;-79
2022/07/23 07:27:23;;;;;;;9.13;3.63;;;19.50;71.30;;;;;;4997654;28;20026;-79
2022/07/23 07:29:49;;;;;;;6.70;3.33;;;20.10;69.30;;;;;;4997532;28;20073;-79
2022/07/23 07:32:14;;;;;;;4.60;2.83;;;21.00;66.70;;;;;;4997366;28;20034;-79
2022/07/23 07:34:40;;;;;;;4.68;2.80;;;22.70;62.90;;;;;;4997622;28;20027;-79
2022/07/23 07:37:06;;;;;;;6.88;2.95;;;25.10;55.20;;;;;;4997801;28;20022;-79
2022/07/23 07:39:31;;;;;;;4.53;2.35;;;26.10;51.90;;;;;;4996505;28;20109;-79
2022/07/23 07:41:57;;;;;;;3.95;2.42;;;27.90;47.90;;;;;;4997539;28;20065;-80
2022/07/23 07:44:23;;;;;;;3.92;2.53;;;29.40;44.50;;;;;;4997297;28;20030;-80
2022/07/23 07:46:48;;;;;;;3.85;2.20;;;31.00;41.90;;;;;;4997066;28;20034;-80
2022/07/23 07:49:14;;;;;;;5.28;2.22;;;32.00;39.30;;;;;;4996749;28;20030;-80
2022/07/23 07:51:40;;;;;;;6.55;2.30;;;32.90;37.10;;;;;;4996101;28;20057;-80
2022/07/23 07:54:05;;;;;;;3.90;2.60;;;33.60;35.70;;;;;;4995874;28;20437;-80
2022/07/23 07:56:31;;;;;;;4.35;1.95;;;34.30;35.40;;;;;;5012007;28;20027;-80
2022/07/23 07:58:57;;;;;;;5.10;1.70;;;34.90;33.20;;;;;;4996420;28;20049;-80
2022/07/23 08:01:22;;;;;;;5.03;2.15;;;35.30;32.70;;;;;;5004720;28;20027;-81
2022/07/23 08:03:48;;;;;;;5.38;2.20;;;35.60;32.40;;;;;;4995873;28;20460;-81
2022/07/23 08:06:13;;;;;;;4.30;1.92;;;35.90;31.50;;;;;;4997227;28;20029;-81
2022/07/23 08:08:39;;;;;;;5.07;1.80;;;36.40;31.40;;;;;;4996348;28;20053;-81
2022/07/23 08:11:05;;;;;;;5.57;2.00;;;36.90;30.10;;;;;;4997005;28;20519;-81
2022/07/23 08:13:30;;;;;;;6.70;2.10;;;36.80;30.10;;;;;;4995833;28;20396;-81
2022/07/23 08:15:56;;;;;;;3.15;1.90;;;36.40;30.20;;;;;;4996760;28;20042;-81
2022/07/23 08:18:22;;;;;;;3.53;1.75;;;37.10;29.90;;;;;;4995379;28;20497;-80
2022/07/23 08:20:47;;;;;;;4.70;2.08;;;37.60;28.80;;;;;;4996285;28;20038;-81
2022/07/23 08:23:13;;;;;;;5.25;1.75;;;38.30;27.90;;;;;;4996305;28;20060;-78
2022/07/23 08:25:41;;;;;;;4.03;1.75;;;38.80;27.50;;;;;;4996607;28;20106;-78
2022/07/23 08:28:09;;;;;;;5.82;1.90;;;38.80;26.10;;;;;;4995034;28;20034;-78
2022/07/23 08:30:36;;;;;;;4.05;1.60;;;38.80;27.10;;;;;;4994433;28;20034;-78
2022/07/23 08:33:11;;;;;;;4.13;1.58;;;39.20;26.90;;;;;;4996094;28;20141;-78
2022/07/23 08:35:44;;;;;;;4.22;1.63;;;38.00;28.00;;;;;;4996435;28;20023;-78
2022/07/23 08:38:10;;;;;;;5.47;2.10;;;38.40;27.50;;;;;;4995910;28;20033;-78
2022/07/23 08:40:39;;;;;;;5.90;1.63;;;39.00;27.00;;;;;;4996505;28;20105;-78
2022/07/23 08:43:07;;;;;;;3.95;1.20;;;39.70;25.70;;;;;;4995686;28;20033;-78
2022/07/23 08:45:38;;;;;;;;;;;40.10;25.50;;;;;;5011701;28;20037;-78
2022/07/23 08:48:08;;;;;;;3.33;1.90;;;40.20;24.60;;;;;;5011165;28;19914;-78
2022/07/23 08:50:36;;;;;;;4.50;1.60;;;40.30;24.70;;;;;;4995601;28;20050;-78
2022/07/23 08:53:02;;;;;;;4.32;1.55;;;40.80;24.20;;;;;;4995503;28;20019;-78
2022/07/23 08:55:28;;;;;;;6.55;1.13;;;41.10;24.00;;;;;;4994942;28;20057;-78
2022/07/23 08:57:53;;;;;;;4.43;1.90;;;40.10;24.50;;;;;;4994965;28;20604;-80
2022/07/23 09:00:21;;;;;;;3.35;1.70;;;37.70;26.90;;;;;;4997188;28;20037;-80
2022/07/23 09:02:47;;;;;;;5.32;1.92;;;37.20;27.60;;;;;;4995457;28;20081;-81
2022/07/23 09:05:14;;;;;;;5.03;1.85;;;38.10;26.50;;;;;;5010969;28;20031;-81
2022/07/23 09:08:07;;;;;;;4.22;1.80;;;38.60;26.10;;;;;;4994191;28;20511;-81
2022/07/23 09:10:59;;;;;;;6.07;1.50;;;38.80;25.10;;;;;;4992408;28;20045;-81
2022/07/23 09:13:24;;;;;;;3.95;1.67;;;39.80;24.80;;;;;;5011042;28;20089;-81
2022/07/23 09:15:52;;;;;;;3.97;1.52;;;39.20;24.50;;;;;;4995923;28;20050;-81
2022/07/23 09:18:17;;;;;;;2.28;1.33;;;39.90;24.50;;;;;;4996178;28;20018;-81
2022/07/23 09:20:46;;;;;;;4.15;1.40;;;40.20;24.10;;;;;;4995596;28;20042;-81
2022/07/23 09:23:11;;;;;;;3.17;1.40;;;38.70;25.60;;;;;;4995443;28;20081;-80
2022/07/23 09:25:37;;;;;;;2.88;1.05;;;37.10;27.00;;;;;;4995529;28;20038;-80
2022/07/23 09:28:03;;;;;;;3.95;1.25;;;35.30;28.60;;;;;;5009319;28;20030;-80
2022/07/23 09:30:34;;;;;;;4.03;1.42;;;33.90;30.90;;;;;;4998270;28;20431;-80
2022/07/23 09:33:15;;;;;;;3.22;1.27;;;32.90;32.10;;;;;;5014994;28;20026;-80
2022/07/23 09:35:55;;;;;;;3.92;1.48;;;31.70;34.00;;;;;;4999231;28;20094;-79
2022/07/23 09:38:23;;;;;;;5.63;1.50;;;30.50;35.50;;;;;;4999684;28;20523;-79
2022/07/23 09:41:11;;;;;;;2.47;1.50;;;30.70;35.10;;;;;;5014678;28;20022;-79
2022/07/23 09:43:37;;;;;;;6.53;1.92;;;33.20;31.30;;;;;;4998840;28;20061;-80
2022/07/23 09:46:21;;;;;;;3.13;1.48;;;34.80;29.50;;;;;;4999273;28;20042;-80
2022/07/23 09:48:47;;;;;;;4.57;1.58;;;36.30;28.30;;;;;;4999445;28;20105;-80
2022/07/23 09:53:57;;;;;;;4.00;1.50;;;37.30;26.20;;;;;;4999742;28;20038;-80
2022/07/23 09:56:26;;;;;;;3.65;1.60;;;38.00;26.30;;;;;;4999379;28;20026;-80
2022/07/23 09:59:02;;;;;;;3.75;1.25;;;38.60;25.20;;;;;;4998623;28;20025;-80
2022/07/23 10:01:29;;;;;;;3.80;1.70;;;39.20;25.00;;;;;;5002663;28;20433;-80
2022/07/23 10:03:55;;;;;;;5.10;1.48;;;39.30;24.80;;;;;;4998579;28;20022;-80
2022/07/23 10:06:21;;;;;;;4.15;1.55;;;39.40;24.80;;;;;;4998867;28;20049;-80
2022/07/23 10:08:49;;;;;;;3.15;1.58;;;39.70;24.30;;;;;;4999013;28;20026;-80
2022/07/23 10:11:15;;;;;;;2.50;1.30;;;39.30;24.80;;;;;;4999100;28;20027;-80
2022/07/23 10:13:55;;;;;;;3.20;1.10;;;39.20;24.80;;;;;;4997970;28;20034;-80
2022/07/23 10:16:22;;;;;;;2.60;0.98;;;39.10;23.90;;;;;;4998465;28;20062;-80
2022/07/23 10:18:48;;;;;;;2.90;1.45;;;38.90;24.20;;;;;;4997884;28;20034;-80
2022/07/23 10:21:23;;;;;;;3.97;1.42;;;39.00;24.80;;;;;;4997866;28;20022;-80
2022/07/23 10:24:12;;;;;;;2.13;1.27;;;38.90;24.50;;;;;;5013342;28;20037;-79
2022/07/23 10:26:41;;;;;;;4.38;1.25;;;38.30;24.60;;;;;;4998973;28;20481;-80
2022/07/23 10:29:24;;;;;;;2.92;0.95;;;37.90;25.20;;;;;;4998571;28;20038;-80
2022/07/23 10:32:02;;;;;;;4.53;0.98;;;37.80;24.40;;;;;;4998739;28;20030;-80
2022/07/23 10:34:55;;;;;;;3.53;1.13;;;37.80;25.00;;;;;;5013454;28;20026;-80
2022/07/23 10:37:36;;;;;;;4.45;1.40;;;37.80;25.20;;;;;;4998573;28;20568;-80
2022/07/23 10:40:09;;;;;;;4.28;1.20;;;37.60;24.60;;;;;;4998573;28;20035;-80
2022/07/23 10:42:36;;;;;;;3.03;1.15;;;36.90;26.20;;;;;;4996179;28;20036;-80
2022/07/23 10:45:35;;;;;;;3.42;1.20;;;36.30;27.20;;;;;;4998677;28;20085;-80
2022/07/23 10:48:20;;;;;;;5.55;1.10;;;35.10;28.40;;;;;;4998393;28;20062;-80
2022/07/23 10:51:06;;;;;;;2.72;1.13;;;33.80;30.20;;;;;;5013573;28;20033;-80
2022/07/23 10:53:50;;;;;;;2.53;1.20;;;33.30;31.40;;;;;;5012067;28;20042;-80
2022/07/23 10:56:17;;;;;;;2.55;1.20;;;32.70;31.60;;;;;;5013564;28;20033;-80
2022/07/23 10:58:48;;;;;;;3.25;1.40;;;32.20;33.00;;;;;;4998166;28;20037;-80
2022/07/23 11:01:40;;;;;;;2.30;1.20;;;31.60;32.60;;;;;;5002652;28;20477;-80
2022/07/23 11:04:07;;;;;;;2.95;1.10;;;31.30;33.40;;;;;;5013399;28;20030;-80
2022/07/23 11:06:48;;;;;;;2.00;1.23;;;31.10;34.60;;;;;;4997207;28;20038;-80
2022/07/23 11:09:28;;;;;;;4.03;1.33;;;30.90;33.90;;;;;;5013126;28;20185;-79
2022/07/23 11:12:12;;;;;;;3.00;1.27;;;30.70;33.80;;;;;;4997258;28;20505;-79
2022/07/23 11:15:10;;;;;;;3.13;1.40;;;30.40;34.00;;;;;;4996615;28;20070;-79
2022/07/23 11:17:39;;;;;;;3.63;1.08;;;30.30;34.50;;;;;;4997365;28;20030;-80
2022/07/23 11:20:11;;;;;;;2.78;1.10;;;30.00;36.30;;;;;;4997273;28;20026;-79
2022/07/23 11:22:43;;;;;;;5.85;1.55;;;29.90;35.80;;;;;;4997737;28;20030;-79
2022/07/23 11:25:28;;;;;;;3.92;1.27;;;29.80;35.90;;;;;;4997633;28;20062;-79
2022/07/23 11:27:54;;;;;;;3.67;1.25;;;29.60;35.80;;;;;;4996988;28;20041;-79
2022/07/23 11:30:25;;;;;;;2.80;1.20;;;29.50;35.30;;;;;;4997286;28;20385;-79
2022/07/23 11:32:51;;;;;;;1.77;1.08;;;29.60;36.30;;;;;;4997587;28;20477;-79
2022/07/23 11:35:21;;;;;;;4.07;1.10;;;29.60;36.00;;;;;;4997037;28;20031;-79
2022/07/23 11:37:48;;;;;;;2.58;1.00;;;29.60;35.90;;;;;;4997235;28;20098;-79
2022/07/23 11:40:16;;;;;;;2.85;1.05;;;29.70;35.60;;;;;;4997049;28;20022;-79
2022/07/23 11:43:00;;;;;;;2.90;1.30;;;29.80;35.60;;;;;;4996814;28;20031;-79
2022/07/23 11:45:34;;;;;;;3.08;1.35;;;29.70;35.20;;;;;;4997363;28;20022;-79
2022/07/23 11:48:01;;;;;;;3.47;1.20;;;29.80;35.20;;;;;;5010937;28;20034;-79
2022/07/23 11:50:26;;;;;;;3.88;1.00;;;29.60;34.40;;;;;;4997209;28;20416;-80
2022/07/23 11:52:54;;;;;;;2.58;1.10;;;29.50;34.70;;;;;;4997096;28;20073;-79
2022/07/23 11:55:20;;;;;;;3.28;0.90;;;29.30;34.40;;;;;;4995755;28;20061;-79
2022/07/23 11:57:46;;;;;;;1.83;0.82;;;29.30;35.20;;;;;;4996020;28;20046;-79
2022/07/23 12:00:23;;;;;;;3.55;0.75;;;29.30;34.80;;;;;;4996941;28;20050;-79
2022/07/23 12:02:52;;;;;;;1.92;0.90;;;29.30;34.50;;;;;;4997011;28;20037;-79
2022/07/23 12:05:26;;;;;;;2.47;1.02;;;29.30;35.40;;;;;;4997218;28;20026;-79
2022/07/23 12:07:54;;;;;;;1.75;1.02;;;29.40;35.70;;;;;;4995020;28;20038;-79
2022/07/23 12:10:41;;;;;;;2.58;0.85;;;29.30;35.10;;;;;;4996823;28;20019;-79
2022/07/23 12:13:13;;;;;;;1.90;0.98;;;29.00;36.20;;;;;;4996657;28;20019;-79
2022/07/23 12:15:44;;;;;;;1.48;0.88;;;29.00;36.80;;;;;;4996887;28;20050;-79
2022/07/23 12:18:14;;;;;;;2.33;1.20;;;29.00;36.20;;;;;;4995562;28;20118;-79
2022/07/23 12:20:46;;;;;;;3.97;1.25;;;29.10;36.20;;;;;;4995537;28;20018;-79
2022/07/23 12:23:15;;;;;;;6.13;1.15;;;29.20;35.70;;;;;;4996289;28;20042;-79
2022/07/23 12:25:43;;;;;;;3.40;1.30;;;29.10;35.80;;;;;;4996659;28;20052;-79
2022/07/23 12:28:27;;;;;;;2.35;0.90;;;28.90;36.10;;;;;;4995036;28;20037;-79
2022/07/23 12:30:55;;;;;;;2.55;1.08;;;29.00;36.60;;;;;;4996528;28;20019;-79
2022/07/23 12:33:25;;;;;;;2.92;1.10;;;29.00;35.60;;;;;;4996122;28;20473;-80
2022/07/23 12:35:54;;;;;;;3.17;1.00;;;29.10;35.20;;;;;;4995796;28;20031;-79
2022/07/23 12:38:21;;;;;;;1.83;1.17;;;29.30;36.60;;;;;;4995069;28;20037;-79
2022/07/23 12:40:55;;;;;;;5.30;1.77;;;29.30;36.70;;;;;;4996139;28;20050;-79
2022/07/23 12:43:30;;;;;;;5.50;1.50;;;29.50;36.10;;;;;;4996228;28;20034;-79
2022/07/23 12:46:02;;;;;;;1.98;1.10;;;29.60;34.20;;;;;;4995913;28;20030;-79
2022/07/23 12:48:34;;;;;;;2.15;1.27;;;29.50;34.70;;;;;;5011098;28;20034;-79
2022/07/23 12:51:04;;;;;;;2.95;1.02;;;29.30;35.20;;;;;;4996216;28;20025;-79
2022/07/23 12:53:40;;;;;;;2.95;1.02;;;29.30;35.20;;;;;;4995613;28;20026;-79